Montpelier, Virginia
Current Conditions -  °F | °C
As of 9:55 AM on Tuesday 21 Oct 2014 (Local Time) from K7W4 Reporting Station
Scattered Clouds Scattered Clouds  
Wind Chill: 58°   Ceiling: Unl
Heat Index: 58°   Visibility: 10mi
Dew Point: 50°   Wind: 3mph
Humidity: 73%   Direction: 190°S
Pressure: 29.89"   Gusts: NA
Location:  37.82°N, 77.68°W
Report Text: K7W4 211355Z AUTO 19003KT 10SM SCT095 15/10 A2989 RMK AO1 T01470100
Loading
Personal Weather Stations






























Interactive Weather Map
Tropical Storm Tracking
New forecast layout! Learn more

10-Day Weather Forecast

Advertisements
Track Severe Weather on mobile